Time;durP1;ratioP1;P1;durP2;ratioP2;P2;SDS_P1;SDS_P2;PMS_P1;PMS_P2;Temp;Humidity;BMP_temperature;BMP_pressure;BME280_temperature;BME280_humidity;BME280_pressure;Samples;Min_cycle;Max_cycle;Signal;HPM_P1;HPM_P2
2024/04/03 00:00:31;;;;;;;13.27;8.50;;;23.20;55.20;;;;;;4991192;28;20223;-66
2024/04/03 00:02:56;;;;;;;18.23;8.03;;;23.20;55.20;;;;;;4991049;28;20181;-67
2024/04/03 00:05:22;;;;;;;12.90;7.47;;;23.20;55.20;;;;;;4991023;28;20555;-67
2024/04/03 00:07:48;;;;;;;14.50;8.90;;;23.10;55.10;;;;;;4991332;28;20208;-67
2024/04/03 00:10:13;;;;;;;18.37;8.67;;;23.20;55.20;;;;;;4991241;28;20264;-67
2024/04/03 00:12:39;;;;;;;11.30;7.07;;;23.10;55.10;;;;;;4991840;28;20169;-68
2024/04/03 00:15:06;;;;;;;14.37;7.50;;;23.10;55.10;;;;;;4994499;28;20169;-67
2024/04/03 00:17:31;;;;;;;14.83;8.50;;;23.10;55.10;;;;;;4994339;28;20173;-68
2024/04/03 00:19:57;;;;;;;11.70;7.23;;;23.10;55.10;;;;;;4994248;28;20430;-66
2024/04/03 00:22:22;;;;;;;14.27;7.97;;;23.10;55.10;;;;;;4994837;28;20590;-66
2024/04/03 00:24:48;;;;;;;14.30;7.40;;;23.10;55.20;;;;;;4994501;28;20212;-68
2024/04/03 00:27:14;;;;;;;14.87;8.60;;;23.10;55.10;;;;;;4994345;28;20169;-67
2024/04/03 00:29:40;;;;;;;12.30;7.37;;;23.10;55.10;;;;;;4994242;28;20169;-68
2024/04/03 00:32:06;;;;;;;12.33;7.23;;;23.10;55.20;;;;;;4994424;28;20420;-66
2024/04/03 00:34:31;;;;;;;11.53;7.40;;;23.10;55.20;;;;;;4994691;28;20173;-67
2024/04/03 00:36:57;;;;;;;15.87;8.10;;;23.10;55.20;;;;;;4994319;28;20203;-66
2024/04/03 00:39:23;;;;;;;12.90;7.57;;;23.10;55.20;;;;;;4994391;28;20664;-68
2024/04/03 00:41:48;;;;;;;13.50;6.93;;;23.10;55.20;;;;;;4994234;28;20200;-68
2024/04/03 00:44:14;;;;;;;13.07;8.03;;;23.10;55.20;;;;;;4993876;28;20193;-67
2024/04/03 00:46:40;;;;;;;11.27;6.37;;;23.10;55.20;;;;;;4994423;28;20652;-67
2024/04/03 00:49:07;;;;;;;12.90;7.30;;;23.10;55.20;;;;;;4994453;28;20208;-67
2024/04/03 00:51:34;;;;;;;15.00;8.27;;;23.10;55.20;;;;;;4994101;28;20436;-68
2024/04/03 00:54:00;;;;;;;11.50;6.83;;;23.10;55.20;;;;;;4993980;28;20459;-66
2024/04/03 00:56:26;;;;;;;14.27;8.03;;;23.10;55.30;;;;;;4994180;28;20420;-67
2024/04/03 00:58:52;;;;;;;10.57;6.70;;;23.10;55.20;;;;;;4993982;28;20416;-68
2024/04/03 01:01:18;;;;;;;12.33;6.63;;;23.10;55.30;;;;;;4994000;28;21060;-68
2024/04/03 01:03:44;;;;;;;16.47;8.00;;;23.10;55.20;;;;;;4993631;28;20696;-68
2024/04/03 01:06:09;;;;;;;12.77;7.47;;;23.10;55.20;;;;;;4993699;28;20423;-66
2024/04/03 01:08:35;;;;;;;10.20;6.63;;;23.10;55.20;;;;;;4993462;28;20177;-67
2024/04/03 01:11:01;;;;;;;14.20;7.53;;;23.10;55.30;;;;;;4993929;28;20185;-67
2024/04/03 01:13:27;;;;;;;11.10;7.20;;;23.10;55.30;;;;;;4993468;28;20223;-67
2024/04/03 01:16:04;;;;;;;12.40;6.37;;;23.10;55.30;;;;;;4993966;28;20830;-68
2024/04/03 01:18:30;;;;;;;12.73;7.27;;;23.10;55.30;;;;;;4993780;28;20402;-68
2024/04/03 01:20:56;;;;;;;14.07;7.27;;;23.10;55.30;;;;;;4993914;28;20805;-66
2024/04/03 01:23:22;;;;;;;13.53;8.23;;;23.10;55.30;;;;;;4993513;28;20451;-68
2024/04/03 01:25:48;;;;;;;12.60;7.23;;;23.10;55.30;;;;;;4992559;28;20181;-67
2024/04/03 01:28:15;;;;;;;10.90;6.50;;;23.10;55.30;;;;;;4993427;28;20176;-68
2024/04/03 01:30:40;;;;;;;10.67;6.80;;;23.10;55.20;;;;;;4993275;28;20427;-68
2024/04/03 01:33:06;;;;;;;11.17;6.30;;;23.10;55.20;;;;;;4993411;28;20416;-68
2024/04/03 01:35:32;;;;;;;12.73;6.80;;;23.10;55.30;;;;;;4975803;28;20257;-68
2024/04/03 01:37:58;;;;;;;12.70;6.60;;;23.10;55.20;;;;;;4993271;28;20227;-66
2024/04/03 01:40:24;;;;;;;11.90;6.93;;;23.10;55.20;;;;;;4993335;28;20424;-67
2024/04/03 01:42:50;;;;;;;10.43;6.70;;;23.10;55.20;;;;;;4993145;28;20182;-68
2024/04/03 01:45:16;;;;;;;11.97;7.23;;;23.10;55.20;;;;;;4993346;28;20227;-67
2024/04/03 01:47:42;;;;;;;11.13;7.47;;;23.10;55.20;;;;;;4993030;28;20452;-67
2024/04/03 01:50:08;;;;;;;9.90;6.70;;;23.10;55.20;;;;;;4993118;28;20209;-68
2024/04/03 01:52:33;;;;;;;12.30;6.87;;;23.10;55.20;;;;;;4993105;28;20419;-67
2024/04/03 01:54:59;;;;;;;13.00;7.03;;;23.10;55.20;;;;;;4992698;28;20652;-67
2024/04/03 01:57:24;;;;;;;11.80;6.40;;;23.10;55.20;;;;;;4993160;28;20184;-67
2024/04/03 01:59:50;;;;;;;10.93;6.50;;;23.10;55.20;;;;;;4992926;28;20173;-67
2024/04/03 02:02:15;;;;;;;13.00;7.30;;;23.10;55.20;;;;;;4992987;28;20192;-67
2024/04/03 02:04:41;;;;;;;10.07;5.90;;;23.10;55.20;;;;;;4992493;28;20247;-67
2024/04/03 02:07:07;;;;;;;11.23;6.90;;;23.10;55.80;;;;;;4992758;28;20219;-67
2024/04/03 02:09:35;;;;;;;10.60;6.50;;;23.10;55.20;;;;;;4993285;28;20208;-67
2024/04/03 02:12:02;;;;;;;10.67;6.47;;;23.10;55.10;;;;;;4992793;28;20719;-66
2024/04/03 02:14:28;;;;;;;13.40;5.80;;;23.10;55.10;;;;;;4992714;28;20408;-68
2024/04/03 02:16:54;;;;;;;10.63;5.80;;;23.10;55.10;;;;;;4992643;28;20420;-67
2024/04/03 02:19:20;;;;;;;12.43;6.13;;;23.10;55.10;;;;;;4992788;28;20608;-67
2024/04/03 02:21:46;;;;;;;9.10;6.23;;;23.10;55.10;;;;;;4992437;28;20500;-68
2024/04/03 02:24:11;;;;;;;9.90;6.43;;;23.10;55.10;;;;;;4992095;28;20284;-68
2024/04/03 02:26:37;;;;;;;9.53;6.23;;;23.10;55.10;;;;;;4992064;28;20252;-69
2024/04/03 02:29:03;;;;;;;9.20;5.93;;;23.10;55.10;;;;;;4993086;28;20169;-68
2024/04/03 02:31:28;;;;;;;9.77;5.37;;;23.10;55.10;;;;;;4992414;28;20617;-68
2024/04/03 02:33:54;;;;;;;11.10;5.97;;;23.10;55.20;;;;;;4992198;28;20187;-67
2024/04/03 02:36:20;;;;;;;13.40;6.00;;;23.10;55.10;;;;;;4991694;28;20219;-68
2024/04/03 02:38:45;;;;;;;7.57;4.83;;;23.00;55.10;;;;;;4992129;28;20176;-65
2024/04/03 02:41:11;;;;;;;9.80;5.53;;;23.00;55.10;;;;;;4992137;28;20193;-67
2024/04/03 02:43:37;;;;;;;9.13;5.83;;;23.00;55.10;;;;;;4992303;28;21041;-67
2024/04/03 02:46:02;;;;;;;8.90;5.63;;;23.00;55.20;;;;;;4992242;28;20177;-66
2024/04/03 02:48:28;;;;;;;7.23;5.20;;;23.00;55.10;;;;;;4992010;28;20227;-68
2024/04/03 02:51:09;;;;;;;8.90;5.70;;;23.00;55.10;;;;;;4992206;28;20348;-67
2024/04/03 02:53:35;;;;;;;10.10;6.63;;;23.00;55.10;;;;;;4974441;28;20609;-67
2024/04/03 02:56:08;;;;;;;9.57;5.33;;;23.00;55.20;;;;;;4991868;28;20428;-68
2024/04/03 02:58:34;;;;;;;9.63;5.87;;;23.00;55.20;;;;;;4992023;28;20511;-67
2024/04/03 03:01:04;;;;;;;10.50;6.70;;;23.00;55.20;;;;;;4992313;28;20474;-67
2024/04/03 03:03:30;;;;;;;11.07;6.47;;;23.00;55.20;;;;;;4991831;28;20545;-67
2024/04/03 03:06:00;;;;;;;8.10;5.20;;;23.00;55.20;;;;;;4991979;28;20462;-68
2024/04/03 03:08:28;;;;;;;10.00;6.07;;;23.00;55.20;;;;;;4991976;28;20761;-67
2024/04/03 03:10:54;;;;;;;10.23;5.77;;;23.00;55.20;;;;;;4991572;28;20438;-68
2024/04/03 03:13:20;;;;;;;9.60;5.53;;;23.00;55.20;;;;;;4991881;28;20451;-67
2024/04/03 03:15:56;;;;;;;8.53;5.37;;;23.00;55.20;;;;;;4991880;28;20444;-67
2024/04/03 03:18:24;;;;;;;11.13;5.70;;;23.00;55.20;;;;;;4991795;28;20177;-67
2024/04/03 03:20:50;;;;;;;9.67;6.70;;;23.00;55.20;;;;;;4991596;28;20472;-68
2024/04/03 03:23:16;;;;;;;6.80;5.37;;;23.00;55.30;;;;;;4991511;28;20488;-67
2024/04/03 03:25:44;;;;;;;7.87;6.00;;;23.00;55.30;;;;;;4991618;28;20177;-67
2024/04/03 03:28:10;;;;;;;8.20;5.10;;;23.00;55.30;;;;;;4991537;28;20419;-67
2024/04/03 03:30:36;;;;;;;10.73;5.90;;;23.00;55.30;;;;;;4991591;28;20439;-68
2024/04/03 03:33:02;;;;;;;7.47;4.90;;;23.00;55.30;;;;;;4991601;28;20898;-68
2024/04/03 03:35:27;;;;;;;8.57;4.80;;;23.00;55.30;;;;;;4991652;28;20188;-67
2024/04/03 03:37:53;;;;;;;8.60;5.50;;;23.00;55.30;;;;;;4991913;28;20415;-68
2024/04/03 03:40:19;;;;;;;8.60;5.70;;;22.90;55.20;;;;;;4991527;28;20197;-67
2024/04/03 03:42:44;;;;;;;6.83;4.77;;;22.90;55.20;;;;;;4991744;28;20539;-67
2024/04/03 03:45:17;;;;;;;7.40;4.90;;;22.90;55.20;;;;;;4991471;28;20633;-67
2024/04/03 03:47:42;;;;;;;7.73;5.30;;;22.90;55.20;;;;;;4974944;28;20664;-67
2024/04/03 03:52:52;;;;;;;8.93;5.50;;;22.90;55.20;;;;;;4994974;28;20212;-68
2024/04/03 03:55:17;;;;;;;6.53;4.80;;;22.90;55.20;;;;;;4995239;28;20412;-66
2024/04/03 03:57:43;;;;;;;8.20;5.73;;;22.90;55.20;;;;;;4995027;28;20736;-68
2024/04/03 04:00:09;;;;;;;8.77;4.90;;;22.90;55.20;;;;;;4994823;28;20676;-66
2024/04/03 04:02:35;;;;;;;8.97;4.73;;;22.90;55.30;;;;;;4995144;28;20177;-67
2024/04/03 04:05:02;;;;;;;6.17;4.80;;;22.90;55.20;;;;;;4994930;28;20460;-67
2024/04/03 04:07:28;;;;;;;8.60;5.70;;;22.90;55.20;;;;;;4994851;28;20268;-68
2024/04/03 04:09:53;;;;;;;7.47;4.77;;;22.90;55.20;;;;;;4995117;28;20416;-67
2024/04/03 04:12:20;;;;;;;7.63;4.93;;;22.90;55.80;;;;;;4977571;28;20423;-68
2024/04/03 04:14:50;;;;;;;7.40;5.00;;;22.90;55.20;;;;;;4977245;28;20177;-67
2024/04/03 04:17:17;;;;;;;8.17;5.40;;;23.00;55.30;;;;;;4994801;28;20413;-67
2024/04/03 04:19:43;;;;;;;8.20;5.33;;;22.90;55.20;;;;;;4994386;28;20447;-67
2024/04/03 04:22:08;;;;;;;8.40;5.50;;;22.90;55.20;;;;;;4994315;28;20455;-67
2024/04/03 04:24:36;;;;;;;7.97;5.13;;;22.90;55.20;;;;;;4994632;28;20251;-67
2024/04/03 04:27:04;;;;;;;6.90;4.47;;;22.90;55.20;;;;;;4994754;28;20173;-68
2024/04/03 04:29:30;;;;;;;8.70;4.80;;;22.90;55.20;;;;;;4994427;28;20451;-67
2024/04/03 04:31:58;;;;;;;9.20;5.70;;;22.90;55.20;;;;;;4994256;28;20471;-68
2024/04/03 04:34:25;;;;;;;9.27;5.53;;;22.90;55.20;;;;;;4994440;28;20741;-67
2024/04/03 04:36:50;;;;;;;8.10;5.03;;;22.90;55.20;;;;;;4994213;28;20408;-68
2024/04/03 04:39:16;;;;;;;5.90;4.20;;;22.90;55.20;;;;;;4994547;28;20418;-67
2024/04/03 04:41:41;;;;;;;7.27;4.73;;;22.90;55.20;;;;;;4994122;28;20205;-66
2024/04/03 04:44:07;;;;;;;7.20;4.10;;;22.90;55.20;;;;;;4976565;28;20580;-67
2024/04/03 04:46:33;;;;;;;7.53;4.83;;;22.90;55.20;;;;;;4994158;28;20177;-67
2024/04/03 04:48:58;;;;;;;6.63;4.37;;;23.00;55.30;;;;;;4994188;28;20193;-68
2024/04/03 04:51:25;;;;;;;9.50;4.40;;;22.90;55.20;;;;;;4993830;28;20220;-67
2024/04/03 04:53:51;;;;;;;5.90;4.40;;;22.90;55.20;;;;;;4994303;28;20271;-66
2024/04/03 04:56:16;;;;;;;4.93;4.30;;;22.90;55.20;;;;;;4994102;28;20487;-66
2024/04/03 04:58:42;;;;;;;6.50;4.73;;;22.90;55.20;;;;;;4993458;28;20181;-67
2024/04/03 05:01:08;;;;;;;7.93;5.23;;;22.90;55.20;;;;;;4993389;28;20189;-67
2024/04/03 05:03:35;;;;;;;7.20;5.10;;;22.90;55.20;;;;;;4976492;28;20232;-68
2024/04/03 05:06:02;;;;;;;8.10;4.80;;;22.90;55.20;;;;;;4994234;28;20416;-68
2024/04/03 05:08:30;;;;;;;7.63;4.53;;;22.90;55.20;;;;;;4993963;28;20523;-67
2024/04/03 05:10:57;;;;;;;8.00;4.53;;;22.90;55.20;;;;;;4993672;28;21022;-68
2024/04/03 05:13:24;;;;;;;6.70;4.07;;;22.90;55.20;;;;;;4993613;28;20435;-68
2024/04/03 05:15:50;;;;;;;6.50;4.10;;;22.90;55.20;;;;;;4993758;28;20503;-68
2024/04/03 05:18:16;;;;;;;9.73;5.53;;;22.90;55.20;;;;;;4993561;28;20520;-67
2024/04/03 05:20:41;;;;;;;6.63;4.67;;;22.90;55.20;;;;;;4993658;28;20783;-67
2024/04/03 05:23:08;;;;;;;8.40;4.57;;;22.90;55.20;;;;;;4993849;28;20177;-67
2024/04/03 05:25:33;;;;;;;6.37;4.83;;;22.90;55.20;;;;;;4993745;28;20185;-68
2024/04/03 05:27:59;;;;;;;8.30;5.13;;;22.90;55.80;;;;;;4993882;28;20419;-68
2024/04/03 05:30:24;;;;;;;5.93;4.10;;;22.90;55.20;;;;;;4993289;28;20203;-66
2024/04/03 05:32:51;;;;;;;6.50;4.30;;;22.90;55.20;;;;;;4993629;28;20211;-68
2024/04/03 05:35:17;;;;;;;6.13;4.30;;;22.90;55.20;;;;;;4993358;28;20557;-67
2024/04/03 05:37:47;;;;;;;5.60;4.10;;;22.90;55.20;;;;;;4993406;28;20420;-68
2024/04/03 05:40:13;;;;;;;7.93;4.10;;;23.00;55.30;;;;;;4993447;28;21005;-69
2024/04/03 05:42:39;;;;;;;6.37;4.03;;;22.90;55.20;;;;;;4993204;28;20408;-68
2024/04/03 05:45:05;;;;;;;7.10;4.27;;;22.90;55.80;;;;;;4993110;28;21009;-68
2024/04/03 05:47:32;;;;;;;5.00;3.73;;;22.90;55.20;;;;;;4993609;28;20451;-68
2024/04/03 05:49:58;;;;;;;8.10;4.70;;;23.00;55.80;;;;;;4992878;28;20436;-67
2024/04/03 05:52:24;;;;;;;9.30;4.73;;;22.90;55.20;;;;;;4993234;28;20416;-66
2024/04/03 05:54:50;;;;;;;5.40;4.50;;;23.00;55.30;;;;;;4993218;28;20409;-67
2024/04/03 05:57:19;;;;;;;5.77;4.20;;;22.90;55.20;;;;;;4993939;28;20427;-66
2024/04/03 05:59:45;;;;;;;7.23;4.80;;;23.00;55.20;;;;;;4992894;28;20275;-68
2024/04/03 06:02:12;;;;;;;5.40;4.10;;;23.00;55.20;;;;;;4992803;28;20423;-68
2024/04/03 06:04:38;;;;;;;6.63;4.70;;;23.00;55.20;;;;;;4992539;28;20466;-68
2024/04/03 06:07:04;;;;;;;7.60;4.50;;;23.00;55.30;;;;;;4992703;28;20420;-67
2024/04/03 06:09:30;;;;;;;7.10;4.00;;;23.00;55.20;;;;;;4992803;28;20440;-67
2024/04/03 06:11:56;;;;;;;4.60;3.63;;;23.00;55.20;;;;;;4992473;28;20431;-68
2024/04/03 06:14:22;;;;;;;6.30;3.93;;;23.00;55.20;;;;;;4993084;28;20420;-66
2024/04/03 06:16:48;;;;;;;7.20;4.67;;;23.00;55.20;;;;;;4992599;28;20470;-68
2024/04/03 06:19:15;;;;;;;5.97;3.97;;;23.00;55.20;;;;;;4992684;28;20181;-68
2024/04/03 06:21:40;;;;;;;6.50;4.33;;;23.00;55.20;;;;;;4974863;28;20205;-68
2024/04/03 06:24:06;;;;;;;5.50;4.00;;;23.00;55.20;;;;;;4992585;28;20463;-66
2024/04/03 06:26:32;;;;;;;6.43;4.57;;;23.00;55.20;;;;;;4992851;28;20882;-68
2024/04/03 06:28:59;;;;;;;7.20;3.90;;;23.00;55.20;;;;;;4992470;28;20177;-69
2024/04/03 06:31:26;;;;;;;7.07;4.37;;;23.00;55.20;;;;;;4992176;28;20524;-67
2024/04/03 06:33:52;;;;;;;6.33;4.47;;;23.00;55.20;;;;;;4992754;28;20467;-66
2024/04/03 06:36:18;;;;;;;5.63;3.70;;;23.00;55.20;;;;;;4992220;28;20408;-67
2024/04/03 06:38:44;;;;;;;6.83;3.80;;;23.00;55.20;;;;;;4991963;28;20789;-67
2024/04/03 06:41:09;;;;;;;4.23;3.27;;;23.00;55.10;;;;;;4992828;28;20201;-67
2024/04/03 06:43:35;;;;;;;4.90;4.10;;;23.00;55.20;;;;;;4992070;28;20197;-67
2024/04/03 06:46:00;;;;;;;4.90;3.43;;;23.00;55.20;;;;;;4992586;28;20177;-66
2024/04/03 06:48:26;;;;;;;6.90;4.10;;;23.00;55.20;;;;;;4992021;28;20252;-67
2024/04/03 06:50:52;;;;;;;6.30;3.93;;;23.00;55.20;;;;;;4974537;28;20212;-67
2024/04/03 06:53:19;;;;;;;7.17;4.37;;;23.00;55.20;;;;;;4992309;28;20203;-68
2024/04/03 06:55:57;;;;;;;6.27;4.13;;;23.00;55.20;;;;;;4991878;28;20412;-67
2024/04/03 06:58:23;;;;;;;5.63;3.37;;;23.00;55.10;;;;;;4992701;28;20474;-67
2024/04/03 07:00:49;;;;;;;7.73;4.40;;;23.00;55.20;;;;;;4992143;28;20439;-67
2024/04/03 07:03:19;;;;;;;6.13;3.83;;;23.00;55.20;;;;;;4991980;28;20459;-66
2024/04/03 07:05:45;;;;;;;7.00;4.80;;;23.00;55.20;;;;;;4992022;28;20400;-67
2024/04/03 07:08:11;;;;;;;5.50;4.57;;;23.00;55.20;;;;;;4992266;28;20409;-67
2024/04/03 07:10:37;;;;;;;6.07;3.40;;;23.00;55.20;;;;;;4992145;28;20488;-67
2024/04/03 07:13:04;;;;;;;6.17;3.67;;;23.00;55.20;;;;;;4992398;28;20411;-66
2024/04/03 07:15:31;;;;;;;5.77;4.07;;;23.00;55.10;;;;;;4992060;28;20412;-68
2024/04/03 07:17:56;;;;;;;5.63;3.90;;;23.00;55.20;;;;;;4992057;28;20788;-67
2024/04/03 07:20:26;;;;;;;6.90;4.23;;;23.10;55.20;;;;;;4992177;28;20515;-67
2024/04/03 07:22:54;;;;;;;7.23;4.50;;;23.00;55.10;;;;;;4976507;28;20284;-66
2024/04/03 07:25:19;;;;;;;5.80;3.87;;;23.00;55.10;;;;;;4995708;28;20428;-67
2024/04/03 07:27:46;;;;;;;6.03;3.93;;;23.00;55.10;;;;;;4996175;28;20471;-67
2024/04/03 07:30:12;;;;;;;5.27;3.80;;;23.00;55.10;;;;;;4996131;28;20547;-67
2024/04/03 07:32:37;;;;;;;5.27;3.73;;;23.00;55.10;;;;;;4995934;28;20434;-68
2024/04/03 07:35:04;;;;;;;6.60;4.50;;;23.10;55.20;;;;;;4995822;28;20185;-68
2024/04/03 07:37:29;;;;;;;5.50;3.07;;;23.10;55.20;;;;;;4996281;28;20271;-66
2024/04/03 07:39:55;;;;;;;7.97;5.30;;;23.10;55.20;;;;;;4995980;28;20934;-67
2024/04/03 07:42:21;;;;;;;5.60;3.60;;;23.10;55.20;;;;;;4995715;28;20558;-67
2024/04/03 07:44:47;;;;;;;4.40;3.20;;;23.10;55.20;;;;;;4995741;28;20695;-68
2024/04/03 07:47:12;;;;;;;7.87;4.60;;;23.10;55.20;;;;;;4995758;28;20181;-68
2024/04/03 07:49:38;;;;;;;7.17;3.77;;;23.10;55.20;;;;;;4996217;28;20997;-68
2024/04/03 07:52:04;;;;;;;6.07;4.10;;;23.10;55.30;;;;;;4978528;28;20675;-66
2024/04/03 07:54:29;;;;;;;7.27;4.47;;;23.10;55.20;;;;;;4995860;28;20217;-66
2024/04/03 07:56:55;;;;;;;7.03;3.83;;;23.10;55.20;;;;;;4995473;28;20176;-65
2024/04/03 07:59:20;;;;;;;4.63;3.47;;;23.10;55.20;;;;;;4996481;28;20180;-65
2024/04/03 08:01:46;;;;;;;5.23;3.40;;;23.10;55.20;;;;;;4995783;28;20230;-67
2024/04/03 08:04:11;;;;;;;5.93;3.80;;;23.10;55.20;;;;;;4995459;28;20247;-67
2024/04/03 08:06:37;;;;;;;5.13;3.40;;;23.10;55.20;;;;;;4995495;28;20260;-68
2024/04/03 08:09:03;;;;;;;4.83;3.73;;;23.10;55.20;;;;;;4997485;28;20870;-70
2024/04/03 08:11:32;;;;;;;5.70;3.73;;;23.10;55.20;;;;;;4996734;28;20197;-68
2024/04/03 08:13:58;;;;;;;4.97;3.30;;;23.10;55.30;;;;;;4996129;28;20196;-69
2024/04/03 08:16:24;;;;;;;8.83;3.53;;;23.10;55.20;;;;;;4996486;28;20810;-69
2024/04/03 08:18:50;;;;;;;4.87;3.70;;;23.10;55.10;;;;;;4995913;28;20169;-68
2024/04/03 08:21:15;;;;;;;7.13;4.57;;;23.10;55.10;;;;;;4996343;28;20663;-69
2024/04/03 08:23:41;;;;;;;5.00;3.27;;;23.10;55.10;;;;;;4996494;28;20452;-70
2024/04/03 08:26:08;;;;;;;7.17;4.10;;;23.10;55.20;;;;;;4996384;28;20937;-69
2024/04/03 08:28:39;;;;;;;4.83;3.33;;;23.10;55.10;;;;;;4978677;28;20200;-69
2024/04/03 08:31:12;;;;;;;6.80;3.70;;;23.10;55.20;;;;;;4996201;28;20482;-69
2024/04/03 08:33:38;;;;;;;6.00;3.10;;;23.10;55.20;;;;;;4996119;28;20503;-70
2024/04/03 08:36:04;;;;;;;5.20;3.30;;;23.10;55.20;;;;;;4996188;28;21230;-69
2024/04/03 08:38:30;;;;;;;4.97;3.43;;;23.10;55.20;;;;;;4978367;28;20434;-69
2024/04/03 08:40:56;;;;;;;5.77;3.60;;;23.00;55.20;;;;;;4995855;28;20495;-68
2024/04/03 08:43:23;;;;;;;5.73;3.67;;;23.00;55.20;;;;;;4995628;28;20219;-69
2024/04/03 08:45:49;;;;;;;4.80;3.53;;;23.00;55.20;;;;;;4996158;28;20413;-68
2024/04/03 08:48:22;;;;;;;5.73;3.23;;;23.10;55.20;;;;;;4996381;28;20412;-68
2024/04/03 08:50:49;;;;;;;4.17;3.17;;;23.00;55.20;;;;;;4996185;28;20432;-69
2024/04/03 08:53:24;;;;;;;5.87;3.40;;;23.00;55.20;;;;;;4995720;28;20464;-68
2024/04/03 08:55:52;;;;;;;5.43;3.60;;;23.00;55.20;;;;;;4995971;28;20499;-68
2024/04/03 08:58:20;;;;;;;5.70;3.23;;;23.00;55.20;;;;;;4995756;28;20411;-70
2024/04/03 09:00:46;;;;;;;5.57;3.67;;;23.00;55.20;;;;;;4995823;28;20507;-69
2024/04/03 09:03:13;;;;;;;5.77;4.10;;;23.00;55.30;;;;;;4995545;28;20771;-67
2024/04/03 09:05:40;;;;;;;6.07;4.63;;;23.00;55.20;;;;;;4995856;28;20403;-69
2024/04/03 09:08:07;;;;;;;5.73;3.73;;;23.00;55.20;;;;;;4995924;28;20409;-70
2024/04/03 09:10:49;;;;;;;6.50;3.80;;;23.00;55.20;;;;;;4977920;28;20467;-69
2024/04/03 09:13:15;;;;;;;7.80;3.80;;;23.00;55.20;;;;;;4995490;28;20443;-69
2024/04/03 09:15:42;;;;;;;4.90;3.30;;;23.00;55.20;;;;;;4995296;28;20454;-70
2024/04/03 09:18:09;;;;;;;5.03;3.83;;;23.00;55.30;;;;;;4995343;28;20419;-69
2024/04/03 09:20:38;;;;;;;4.53;3.17;;;23.00;55.80;;;;;;4995148;28;20957;-69
2024/04/03 09:23:04;;;;;;;4.60;3.57;;;23.00;55.20;;;;;;4995347;28;20929;-69
2024/04/03 09:25:33;;;;;;;4.57;2.97;;;23.00;55.30;;;;;;4995031;28;20404;-70
2024/04/03 09:28:09;;;;;;;6.07;3.17;;;23.00;55.20;;;;;;4994832;28;20177;-70
2024/04/03 09:30:39;;;;;;;3.63;2.80;;;23.00;55.20;;;;;;4994783;28;20424;-71
2024/04/03 09:33:06;;;;;;;5.80;3.70;;;23.00;55.30;;;;;;4994683;28;20847;-69
2024/04/03 09:35:38;;;;;;;5.03;3.03;;;23.00;55.30;;;;;;4995029;28;20412;-70
2024/04/03 09:38:04;;;;;;;5.23;3.47;;;23.00;55.30;;;;;;4994927;28;20411;-68
2024/04/03 09:40:31;;;;;;;5.80;3.20;;;23.00;55.30;;;;;;4994607;28;20420;-70
2024/04/03 09:43:06;;;;;;;6.40;3.90;;;23.00;55.30;;;;;;4994573;28;20203;-70
2024/04/03 09:45:32;;;;;;;4.70;3.23;;;23.00;55.30;;;;;;4994326;28;20879;-69
2024/04/03 09:48:11;;;;;;;4.17;2.77;;;23.00;55.30;;;;;;4994581;28;20515;-68
2024/04/03 09:50:44;;;;;;;5.47;3.30;;;23.00;55.30;;;;;;4994849;28;20551;-67
2024/04/03 09:53:17;;;;;;;5.40;3.20;;;23.00;55.30;;;;;;4994510;28;20459;-69
2024/04/03 09:55:45;;;;;;;6.03;4.40;;;23.00;55.30;;;;;;4994467;28;20978;-69
2024/04/03 09:58:13;;;;;;;8.60;6.30;;;23.00;55.30;;;;;;4994692;28;20990;-69
2024/04/03 10:00:40;;;;;;;11.57;9.07;;;23.00;55.30;;;;;;4994511;28;20451;-68
2024/04/03 10:03:23;;;;;;;12.50;9.40;;;23.00;55.30;;;;;;4994484;28;20415;-69
2024/04/03 10:06:00;;;;;;;15.10;11.10;;;23.00;55.30;;;;;;4977208;28;20731;-70
2024/04/03 10:08:33;;;;;;;15.00;11.30;;;23.00;55.30;;;;;;4994434;28;20408;-68
2024/04/03 10:11:03;;;;;;;15.63;10.80;;;23.00;55.30;;;;;;4994005;28;20437;-69
2024/04/03 10:13:29;;;;;;;14.00;10.47;;;23.00;55.30;;;;;;4994383;28;20396;-70
2024/04/03 10:16:09;;;;;;;14.77;10.80;;;23.00;55.30;;;;;;4994064;28;20416;-68
2024/04/03 10:18:39;;;;;;;15.60;11.47;;;23.00;55.30;;;;;;4994559;28;20451;-70
2024/04/03 10:21:12;;;;;;;16.20;11.57;;;23.00;55.30;;;;;;4976555;28;20805;-70
2024/04/03 10:23:41;;;;;;;15.50;12.23;;;23.00;55.30;;;;;;4993565;28;20471;-70
2024/04/03 10:26:08;;;;;;;17.50;13.57;;;23.00;55.30;;;;;;4994190;28;20467;-69
2024/04/03 10:28:33;;;;;;;16.50;12.40;;;23.00;55.30;;;;;;4994055;28;20420;-69
2024/04/03 10:30:59;;;;;;;16.63;11.97;;;23.00;55.30;;;;;;4994017;28;20428;-70
2024/04/03 10:33:27;;;;;;;17.70;12.97;;;23.00;55.30;;;;;;4976083;28;20192;-70
2024/04/03 10:35:53;;;;;;;17.50;12.93;;;23.00;55.30;;;;;;4993812;28;20173;-70
2024/04/03 10:38:19;;;;;;;19.93;13.17;;;23.00;55.30;;;;;;4993481;28;20535;-70
2024/04/03 10:40:47;;;;;;;17.70;13.23;;;23.00;55.30;;;;;;4993873;28;20269;-69
2024/04/03 10:43:13;;;;;;;18.57;12.50;;;23.00;55.30;;;;;;4994729;28;20178;-69
2024/04/03 10:45:39;;;;;;;20.30;13.83;;;23.00;55.30;;;;;;4993620;28;20412;-70
2024/04/03 10:48:09;;;;;;;17.93;13.47;;;23.00;55.30;;;;;;4994172;28;20430;-69
2024/04/03 10:50:38;;;;;;;18.80;13.00;;;23.00;55.30;;;;;;4993484;28;20592;-69
2024/04/03 10:53:05;;;;;;;18.27;12.70;;;23.00;55.30;;;;;;4994039;28;20840;-70
2024/04/03 10:55:31;;;;;;;15.87;13.53;;;23.00;55.30;;;;;;4993555;28;20404;-68
2024/04/03 10:58:04;;;;;;;15.40;12.47;;;23.00;55.30;;;;;;4993888;28;20408;-71
2024/04/03 11:00:33;;;;;;;21.10;13.70;;;23.00;55.30;;;;;;4993414;28;20524;-70
2024/04/03 11:03:02;;;;;;;19.80;14.13;;;23.00;55.30;;;;;;4993155;28;20412;-70
2024/04/03 11:05:28;;;;;;;22.57;14.80;;;23.00;55.30;;;;;;4993518;28;20554;-69
2024/04/03 11:07:54;;;;;;;19.17;13.60;;;23.00;55.30;;;;;;4993412;28;20427;-69
2024/04/03 11:10:21;;;;;;;20.03;13.60;;;23.00;55.30;;;;;;4993796;28;20840;-68
2024/04/03 11:12:47;;;;;;;18.43;14.30;;;23.00;55.30;;;;;;4993595;28;20319;-70
2024/04/03 11:15:15;;;;;;;19.17;13.53;;;23.00;55.30;;;;;;4993319;28;20419;-69
2024/04/03 11:17:40;;;;;;;19.60;13.60;;;23.10;55.30;;;;;;4993570;28;20416;-69
2024/04/03 11:20:08;;;;;;;22.50;14.80;;;23.00;55.30;;;;;;4993309;28;21013;-69
2024/04/03 11:22:33;;;;;;;18.03;13.30;;;23.00;55.30;;;;;;4993293;28;20181;-70
2024/04/03 11:25:00;;;;;;;19.40;13.90;;;23.00;55.30;;;;;;4993477;28;20503;-70
2024/04/03 11:27:26;;;;;;;17.63;12.43;;;23.00;55.30;;;;;;4993460;28;20169;-70
2024/04/03 11:29:52;;;;;;;15.63;12.20;;;23.00;55.30;;;;;;4993128;28;20466;-69
2024/04/03 11:32:18;;;;;;;16.93;12.90;;;23.00;55.30;;;;;;4993251;28;20420;-70
2024/04/03 11:34:43;;;;;;;19.60;14.17;;;23.00;55.30;;;;;;4993754;28;20185;-69
2024/04/03 11:37:09;;;;;;;19.10;13.37;;;23.00;55.30;;;;;;4993573;28;20600;-70
2024/04/03 11:39:34;;;;;;;18.73;12.97;;;23.00;55.30;;;;;;4993926;28;20189;-69
2024/04/03 11:42:01;;;;;;;17.63;13.27;;;23.00;55.30;;;;;;4993425;28;20229;-69
2024/04/03 11:44:27;;;;;;;17.20;13.33;;;23.00;55.30;;;;;;4975365;28;20562;-69
2024/04/03 11:46:53;;;;;;;18.07;13.50;;;23.00;55.30;;;;;;4993752;28;20475;-69
2024/04/03 11:49:18;;;;;;;16.60;12.40;;;23.00;55.30;;;;;;4993096;28;20703;-72
2024/04/03 11:51:46;;;;;;;15.90;11.87;;;23.00;55.30;;;;;;4993200;28;20436;-69
2024/04/03 11:54:13;;;;;;;16.70;12.10;;;23.00;55.30;;;;;;4975471;28;20185;-69
2024/04/03 11:56:39;;;;;;;17.53;13.63;;;23.00;55.30;;;;;;4992822;28;20448;-71
2024/04/03 11:59:06;;;;;;;16.00;11.83;;;23.00;55.30;;;;;;4992868;28;20919;-70
2024/04/03 12:01:32;;;;;;;17.30;13.00;;;23.00;55.30;;;;;;4993068;28;20204;-69
2024/04/03 12:03:58;;;;;;;17.43;12.40;;;23.00;55.30;;;;;;4993018;28;20456;-70
2024/04/03 12:06:24;;;;;;;13.83;11.43;;;23.00;55.30;;;;;;4993009;28;20542;-69
2024/04/03 12:08:50;;;;;;;16.63;12.97;;;23.00;55.30;;;;;;4994455;28;20180;-69
2024/04/03 12:11:16;;;;;;;14.27;12.23;;;23.00;55.30;;;;;;4996857;28;20468;-68
2024/04/03 12:13:42;;;;;;;14.10;11.80;;;23.00;55.80;;;;;;4996775;28;20431;-68
2024/04/03 12:16:10;;;;;;;18.30;12.23;;;23.00;55.30;;;;;;4996705;28;20219;-69
2024/04/03 12:18:50;;;;;;;17.03;11.50;;;23.00;55.30;;;;;;4996727;28;20420;-70
2024/04/03 12:21:18;;;;;;;15.83;12.00;;;23.00;55.30;;;;;;4996552;28;20428;-68
2024/04/03 12:23:45;;;;;;;18.27;11.83;;;23.00;55.30;;;;;;4996281;28;20452;-69
2024/04/03 12:26:12;;;;;;;14.27;11.20;;;23.00;55.30;;;;;;4996186;28;20408;-70
2024/04/03 12:28:38;;;;;;;17.83;12.30;;;23.00;55.30;;;;;;4996484;28;20759;-69
2024/04/03 12:31:04;;;;;;;15.50;11.97;;;23.10;55.30;;;;;;4996284;28;20490;-69
2024/04/03 12:33:30;;;;;;;15.63;11.27;;;23.00;55.30;;;;;;4978913;28;20448;-69
2024/04/03 12:35:56;;;;;;;18.63;12.10;;;23.00;55.30;;;;;;4996467;28;20431;-69
2024/04/03 12:38:21;;;;;;;17.00;10.87;;;23.00;55.30;;;;;;4995712;28;20711;-69
2024/04/03 12:40:48;;;;;;;16.30;12.00;;;23.00;55.30;;;;;;4996649;28;20455;-71